Aérodrome :
LOGIN :

S'inscrire | Disclaimer

   EN    FR    IT 

 










Légende :    VFR   VFR Marginal   IFR   IFR Intensif   IFR Très Intensif
Visi : 
Plafond : 
>= 8 km
>= 3000ft
5 à 8 km
1000 à 3000 ft
1500m à 5 km
500 à 1000 ft
800 à 1500m
200 à 500 ft
< 800m
< 200 ft
Symboles :   Orages  Brouillard  Fortes neiges  Fortes précipitations  Vent > 20 kt
SIGMETs :   Divers  Orages  Givrage  Turbulence  Onde Orograph.  Cendres Volcan.







- Altitude de l'aérodrome : 297 ft
- Code IATA : UIP
- Voir les cartes d'approche


LFRQ - Quimper Pluguffan

DERNIER METAR :
  • 170030Z AUTO VRB02KT 0450 0400 R28/0500N FG VV/// 09/09 Q1019

METARs EXPIRÉS :
  • 170000Z AUTO 00000KT 0250 R28/0375U FG VV/// 09/09 Q1019
  • 162330Z AUTO VRB01KT 0350 0300 R28/0350N FG VV/// 09/09 Q1019
  • 162300Z AUTO 11002KT 0450 R28/0600U FG VV/// 09/09 Q1019
  • 162230Z AUTO VRB01KT 0450 0350 R28/0500D FG VV/// 09/09 Q1019
  • 162200Z AUTO 03002KT 0550 0500 R28/0700D FG VV/// 10/09 Q1019

TAF TAF LFRQ
Valide du 16 à 18h jusqu'au 17 à 18h UTC


161700Z 1618/1718 20004KT 9999 BKN028
BECMG 1623/1701 OVC006
TEMPO 1702/1718 3000 -RADZ OVC003
Pas de NOTAMs connus pour ce terrain.



MET'MAP, la Météo Aéronautique d'un coup d'oeil ! - Copyright ORBIFLY Décembre 2007 - Disclaimer

ORBIFLY MET'MAP TEAM :

Programmation & Développement : Alexandra Zaïnal
Conception & Développement : Baudouin d'Aumeries
Co-Programmation & Développement : Marc-Olivier Méhu
Soutien technique & logistique : Manuel Goepfert

Contact : metmap@orbifly.com




SOURCES & CREDITS :

   NOAA